Saint Francis, South Dakota
Current Conditions -  °F | °C
As of 11:52 AM on Thursday 18 Dec 2014 (Local Time) from KVTN Reporting Station
Haze Haze  
Wind Chill: 19°   Ceiling: 900
Heat Index: 27°   Visibility: 5mi
Dew Point: 23°   Wind: 8mph
Humidity: 85%   Direction: 210°SSW
Pressure: 30.06"   Gusts: NA
Location:  43.14°N, 100.91°W
Report Text: KVTN 181852Z AUTO 21007KT 5SM BR OVC009 M03/M05 A3006 RMK AO2 SLP211 T10281050
Loading
Personal Weather Stations






























Interactive Weather Map New forecast layout! Learn more

10-Day Weather Forecast

Advertisements
Track Severe Weather on mobile